sensor_id;sensor_type;location;lat;lon;timestamp;P1;durP1;ratioP1;P2;durP2;ratioP2
10132;SDS011;5106;50.926;7.080;2023-05-10T00:01:33;7.68;;;6.72;;
10132;SDS011;5106;50.926;7.080;2023-05-10T00:03:59;8.50;;;6.47;;
10132;SDS011;5106;50.926;7.080;2023-05-10T00:06:25;8.18;;;6.72;;
10132;SDS011;5106;50.926;7.080;2023-05-10T00:08:50;7.65;;;6.93;;
10132;SDS011;5106;50.926;7.080;2023-05-10T00:11:16;7.38;;;6.60;;
10132;SDS011;5106;50.926;7.080;2023-05-10T00:13:41;8.50;;;6.88;;
10132;SDS011;5106;50.926;7.080;2023-05-10T00:16:07;12.40;;;7.30;;
10132;SDS011;5106;50.926;7.080;2023-05-10T00:18:33;8.30;;;6.88;;
10132;SDS011;5106;50.926;7.080;2023-05-10T00:20:58;9.23;;;7.07;;
10132;SDS011;5106;50.926;7.080;2023-05-10T00:23:24;10.55;;;8.00;;
10132;SDS011;5106;50.926;7.080;2023-05-10T00:25:50;8.90;;;8.00;;
10132;SDS011;5106;50.926;7.080;2023-05-10T00:28:15;9.57;;;8.57;;
10132;SDS011;5106;50.926;7.080;2023-05-10T00:30:41;10.07;;;7.95;;
10132;SDS011;5106;50.926;7.080;2023-05-10T00:33:06;9.75;;;8.75;;
10132;SDS011;5106;50.926;7.080;2023-05-10T00:35:32;10.45;;;8.23;;
10132;SDS011;5106;50.926;7.080;2023-05-10T00:37:58;10.63;;;8.93;;
10132;SDS011;5106;50.926;7.080;2023-05-10T00:40:23;11.52;;;8.73;;
10132;SDS011;5106;50.926;7.080;2023-05-10T00:42:49;9.13;;;8.18;;
10132;SDS011;5106;50.926;7.080;2023-05-10T00:45:14;11.73;;;8.90;;
10132;SDS011;5106;50.926;7.080;2023-05-10T00:47:40;12.88;;;9.27;;
10132;SDS011;5106;50.926;7.080;2023-05-10T00:50:06;12.43;;;9.73;;
10132;SDS011;5106;50.926;7.080;2023-05-10T00:52:34;12.07;;;9.60;;
10132;SDS011;5106;50.926;7.080;2023-05-10T00:54:59;14.40;;;10.30;;
10132;SDS011;5106;50.926;7.080;2023-05-10T00:57:25;13.73;;;9.55;;
10132;SDS011;5106;50.926;7.080;2023-05-10T00:59:51;13.38;;;10.18;;
10132;SDS011;5106;50.926;7.080;2023-05-10T01:02:16;12.05;;;9.65;;
10132;SDS011;5106;50.926;7.080;2023-05-10T01:04:42;15.85;;;11.02;;
10132;SDS011;5106;50.926;7.080;2023-05-10T01:07:08;14.25;;;9.70;;
10132;SDS011;5106;50.926;7.080;2023-05-10T01:09:34;12.70;;;10.50;;
10132;SDS011;5106;50.926;7.080;2023-05-10T01:11:59;13.65;;;10.63;;
10132;SDS011;5106;50.926;7.080;2023-05-10T01:14:26;13.25;;;10.30;;
10132;SDS011;5106;50.926;7.080;2023-05-10T01:16:53;14.13;;;10.75;;
10132;SDS011;5106;50.926;7.080;2023-05-10T01:19:22;16.60;;;11.35;;
10132;SDS011;5106;50.926;7.080;2023-05-10T01:30:19;13.77;;;10.73;;
10132;SDS011;5106;50.926;7.080;2023-05-10T01:33:25;14.20;;;11.10;;
10132;SDS011;5106;50.926;7.080;2023-05-10T01:38:42;18.70;;;11.68;;
10132;SDS011;5106;50.926;7.080;2023-05-10T01:41:21;16.08;;;12.48;;
10132;SDS011;5106;50.926;7.080;2023-05-10T01:46:33;15.63;;;11.57;;
10132;SDS011;5106;50.926;7.080;2023-05-10T01:49:02;15.45;;;11.77;;
10132;SDS011;5106;50.926;7.080;2023-05-10T01:51:37;14.52;;;11.77;;
10132;SDS011;5106;50.926;7.080;2023-05-10T01:54:09;15.63;;;12.32;;
10132;SDS011;5106;50.926;7.080;2023-05-10T01:56:38;16.83;;;12.88;;
10132;SDS011;5106;50.926;7.080;2023-05-10T01:59:06;16.95;;;12.13;;
10132;SDS011;5106;50.926;7.080;2023-05-10T02:01:36;14.80;;;11.75;;
10132;SDS011;5106;50.926;7.080;2023-05-10T02:04:02;15.65;;;12.45;;
10132;SDS011;5106;50.926;7.080;2023-05-10T02:06:29;16.63;;;12.20;;
10132;SDS011;5106;50.926;7.080;2023-05-10T02:08:57;18.65;;;11.63;;
10132;SDS011;5106;50.926;7.080;2023-05-10T02:11:23;15.85;;;12.07;;
10132;SDS011;5106;50.926;7.080;2023-05-10T02:13:50;14.23;;;11.23;;
10132;SDS011;5106;50.926;7.080;2023-05-10T02:16:18;15.52;;;11.27;;
10132;SDS011;5106;50.926;7.080;2023-05-10T02:18:49;15.50;;;11.35;;
10132;SDS011;5106;50.926;7.080;2023-05-10T02:21:16;17.50;;;11.20;;
10132;SDS011;5106;50.926;7.080;2023-05-10T02:23:43;15.45;;;11.52;;
10132;SDS011;5106;50.926;7.080;2023-05-10T02:26:10;16.13;;;11.43;;
10132;SDS011;5106;50.926;7.080;2023-05-10T02:28:38;14.25;;;10.80;;
10132;SDS011;5106;50.926;7.080;2023-05-10T02:31:05;15.77;;;11.35;;
10132;SDS011;5106;50.926;7.080;2023-05-10T02:33:34;11.65;;;8.57;;
10132;SDS011;5106;50.926;7.080;2023-05-10T02:36:01;9.80;;;7.80;;
10132;SDS011;5106;50.926;7.080;2023-05-10T02:38:28;9.55;;;7.88;;
10132;SDS011;5106;50.926;7.080;2023-05-10T02:40:56;10.35;;;6.72;;
10132;SDS011;5106;50.926;7.080;2023-05-10T02:43:23;7.90;;;5.90;;
10132;SDS011;5106;50.926;7.080;2023-05-10T02:45:50;7.75;;;5.75;;
10132;SDS011;5106;50.926;7.080;2023-05-10T02:48:16;6.07;;;4.72;;
10132;SDS011;5106;50.926;7.080;2023-05-10T02:50:45;8.35;;;4.80;;
10132;SDS011;5106;50.926;7.080;2023-05-10T02:53:18;6.43;;;4.88;;
10132;SDS011;5106;50.926;7.080;2023-05-10T02:55:49;8.00;;;5.20;;
10132;SDS011;5106;50.926;7.080;2023-05-10T02:58:17;6.57;;;4.97;;
10132;SDS011;5106;50.926;7.080;2023-05-10T03:00:44;6.07;;;4.47;;
10132;SDS011;5106;50.926;7.080;2023-05-10T03:03:11;7.72;;;5.40;;
10132;SDS011;5106;50.926;7.080;2023-05-10T03:05:36;7.95;;;5.68;;
10132;SDS011;5106;50.926;7.080;2023-05-10T03:08:02;8.07;;;6.50;;
10132;SDS011;5106;50.926;7.080;2023-05-10T03:10:29;8.15;;;6.30;;
10132;SDS011;5106;50.926;7.080;2023-05-10T03:13:07;6.53;;;5.43;;
10132;SDS011;5106;50.926;7.080;2023-05-10T03:16:16;7.93;;;5.60;;
10132;SDS011;5106;50.926;7.080;2023-05-10T03:21:28;6.50;;;5.35;;
10132;SDS011;5106;50.926;7.080;2023-05-10T03:24:07;7.30;;;5.35;;
10132;SDS011;5106;50.926;7.080;2023-05-10T03:26:36;7.88;;;5.72;;
10132;SDS011;5106;50.926;7.080;2023-05-10T03:29:04;7.97;;;5.53;;
10132;SDS011;5106;50.926;7.080;2023-05-10T03:31:31;6.70;;;5.30;;
10132;SDS011;5106;50.926;7.080;2023-05-10T03:33:57;7.78;;;5.80;;
10132;SDS011;5106;50.926;7.080;2023-05-10T03:36:23;7.60;;;5.75;;
10132;SDS011;5106;50.926;7.080;2023-05-10T03:38:48;6.30;;;5.35;;
10132;SDS011;5106;50.926;7.080;2023-05-10T03:41:14;7.38;;;5.85;;
10132;SDS011;5106;50.926;7.080;2023-05-10T03:43:40;9.77;;;6.55;;
10132;SDS011;5106;50.926;7.080;2023-05-10T03:46:06;8.20;;;5.90;;
10132;SDS011;5106;50.926;7.080;2023-05-10T03:48:31;6.88;;;6.03;;
10132;SDS011;5106;50.926;7.080;2023-05-10T03:50:57;8.00;;;5.80;;
10132;SDS011;5106;50.926;7.080;2023-05-10T03:53:23;6.65;;;5.43;;
10132;SDS011;5106;50.926;7.080;2023-05-10T03:55:50;8.13;;;5.80;;
10132;SDS011;5106;50.926;7.080;2023-05-10T03:58:15;8.82;;;6.13;;
10132;SDS011;5106;50.926;7.080;2023-05-10T04:00:41;11.00;;;6.47;;
10132;SDS011;5106;50.926;7.080;2023-05-10T04:03:10;8.10;;;6.25;;
10132;SDS011;5106;50.926;7.080;2023-05-10T04:05:36;7.95;;;5.82;;
10132;SDS011;5106;50.926;7.080;2023-05-10T04:08:02;8.80;;;6.40;;
10132;SDS011;5106;50.926;7.080;2023-05-10T04:10:28;7.65;;;5.78;;
10132;SDS011;5106;50.926;7.080;2023-05-10T04:12:53;8.80;;;6.47;;
10132;SDS011;5106;50.926;7.080;2023-05-10T04:15:19;9.40;;;6.75;;
10132;SDS011;5106;50.926;7.080;2023-05-10T04:17:45;8.02;;;6.78;;
10132;SDS011;5106;50.926;7.080;2023-05-10T04:20:11;11.13;;;6.82;;
10132;SDS011;5106;50.926;7.080;2023-05-10T04:22:37;7.95;;;6.95;;
10132;SDS011;5106;50.926;7.080;2023-05-10T04:25:02;12.10;;;7.53;;
10132;SDS011;5106;50.926;7.080;2023-05-10T04:27:29;9.25;;;6.70;;
10132;SDS011;5106;50.926;7.080;2023-05-10T04:29:55;11.75;;;8.55;;
10132;SDS011;5106;50.926;7.080;2023-05-10T04:32:21;12.18;;;8.30;;
10132;SDS011;5106;50.926;7.080;2023-05-10T04:34:47;11.02;;;7.97;;
10132;SDS011;5106;50.926;7.080;2023-05-10T04:37:13;12.27;;;9.82;;
10132;SDS011;5106;50.926;7.080;2023-05-10T04:39:38;13.88;;;9.85;;
10132;SDS011;5106;50.926;7.080;2023-05-10T04:42:04;12.32;;;8.18;;
10132;SDS011;5106;50.926;7.080;2023-05-10T04:44:30;13.27;;;9.60;;
10132;SDS011;5106;50.926;7.080;2023-05-10T04:46:56;14.00;;;10.00;;
10132;SDS011;5106;50.926;7.080;2023-05-10T04:49:22;14.20;;;10.68;;
10132;SDS011;5106;50.926;7.080;2023-05-10T04:51:48;15.32;;;11.38;;
10132;SDS011;5106;50.926;7.080;2023-05-10T04:54:13;19.15;;;13.27;;
10132;SDS011;5106;50.926;7.080;2023-05-10T04:56:39;20.05;;;12.73;;
10132;SDS011;5106;50.926;7.080;2023-05-10T04:59:05;19.30;;;13.73;;
10132;SDS011;5106;50.926;7.080;2023-05-10T05:01:31;19.40;;;12.85;;
10132;SDS011;5106;50.926;7.080;2023-05-10T05:03:57;18.58;;;12.50;;
10132;SDS011;5106;50.926;7.080;2023-05-10T05:06:24;18.58;;;13.25;;
10132;SDS011;5106;50.926;7.080;2023-05-10T05:08:50;16.95;;;12.23;;
10132;SDS011;5106;50.926;7.080;2023-05-10T05:11:16;18.23;;;12.25;;
10132;SDS011;5106;50.926;7.080;2023-05-10T05:13:42;18.17;;;13.43;;
10132;SDS011;5106;50.926;7.080;2023-05-10T05:16:08;19.77;;;13.82;;
10132;SDS011;5106;50.926;7.080;2023-05-10T05:18:33;18.20;;;13.10;;
10132;SDS011;5106;50.926;7.080;2023-05-10T05:21:00;20.40;;;13.00;;
10132;SDS011;5106;50.926;7.080;2023-05-10T05:23:26;17.45;;;13.13;;
10132;SDS011;5106;50.926;7.080;2023-05-10T05:25:52;22.02;;;13.80;;
10132;SDS011;5106;50.926;7.080;2023-05-10T05:28:18;20.25;;;14.10;;
10132;SDS011;5106;50.926;7.080;2023-05-10T05:30:44;17.73;;;13.00;;
10132;SDS011;5106;50.926;7.080;2023-05-10T05:33:10;22.50;;;14.13;;
10132;SDS011;5106;50.926;7.080;2023-05-10T05:35:36;19.58;;;12.50;;
10132;SDS011;5106;50.926;7.080;2023-05-10T05:38:02;17.67;;;12.63;;
10132;SDS011;5106;50.926;7.080;2023-05-10T05:40:27;18.52;;;13.30;;
10132;SDS011;5106;50.926;7.080;2023-05-10T05:42:53;19.33;;;13.20;;
10132;SDS011;5106;50.926;7.080;2023-05-10T05:45:18;20.90;;;12.88;;
10132;SDS011;5106;50.926;7.080;2023-05-10T05:47:44;24.58;;;12.38;;
10132;SDS011;5106;50.926;7.080;2023-05-10T05:50:10;19.55;;;12.68;;
10132;SDS011;5106;50.926;7.080;2023-05-10T05:52:35;19.92;;;12.55;;
10132;SDS011;5106;50.926;7.080;2023-05-10T05:55:01;18.70;;;11.80;;
10132;SDS011;5106;50.926;7.080;2023-05-10T05:57:26;20.90;;;12.27;;
10132;SDS011;5106;50.926;7.080;2023-05-10T05:59:52;21.98;;;12.88;;
10132;SDS011;5106;50.926;7.080;2023-05-10T06:02:18;20.23;;;12.90;;
10132;SDS011;5106;50.926;7.080;2023-05-10T06:04:43;21.88;;;14.10;;
10132;SDS011;5106;50.926;7.080;2023-05-10T06:07:09;22.48;;;13.25;;
10132;SDS011;5106;50.926;7.080;2023-05-10T06:09:35;20.20;;;13.00;;
10132;SDS011;5106;50.926;7.080;2023-05-10T06:12:01;21.13;;;12.77;;
10132;SDS011;5106;50.926;7.080;2023-05-10T06:14:26;21.15;;;13.93;;
10132;SDS011;5106;50.926;7.080;2023-05-10T06:16:52;18.48;;;13.25;;
10132;SDS011;5106;50.926;7.080;2023-05-10T06:19:18;19.70;;;13.07;;
10132;SDS011;5106;50.926;7.080;2023-05-10T06:21:43;18.83;;;13.68;;
10132;SDS011;5106;50.926;7.080;2023-05-10T06:24:09;24.50;;;14.45;;
10132;SDS011;5106;50.926;7.080;2023-05-10T06:26:35;20.77;;;13.65;;
10132;SDS011;5106;50.926;7.080;2023-05-10T06:29:01;24.27;;;14.35;;
10132;SDS011;5106;50.926;7.080;2023-05-10T06:31:26;20.17;;;13.18;;
10132;SDS011;5106;50.926;7.080;2023-05-10T06:33:52;19.48;;;13.30;;
10132;SDS011;5106;50.926;7.080;2023-05-10T06:36:18;20.50;;;12.90;;
10132;SDS011;5106;50.926;7.080;2023-05-10T06:38:43;21.70;;;13.55;;
10132;SDS011;5106;50.926;7.080;2023-05-10T06:41:09;21.48;;;13.52;;
10132;SDS011;5106;50.926;7.080;2023-05-10T06:43:35;20.77;;;12.13;;
10132;SDS011;5106;50.926;7.080;2023-05-10T06:46:06;18.67;;;12.70;;
10132;SDS011;5106;50.926;7.080;2023-05-10T06:48:32;20.52;;;12.73;;
10132;SDS011;5106;50.926;7.080;2023-05-10T06:50:57;18.17;;;13.50;;
10132;SDS011;5106;50.926;7.080;2023-05-10T06:53:23;19.13;;;12.48;;
10132;SDS011;5106;50.926;7.080;2023-05-10T06:55:49;26.23;;;14.00;;
10132;SDS011;5106;50.926;7.080;2023-05-10T06:58:14;19.13;;;12.80;;
10132;SDS011;5106;50.926;7.080;2023-05-10T07:00:40;20.10;;;12.40;;
10132;SDS011;5106;50.926;7.080;2023-05-10T07:03:08;20.15;;;13.10;;
10132;SDS011;5106;50.926;7.080;2023-05-10T07:05:37;21.55;;;13.23;;
10132;SDS011;5106;50.926;7.080;2023-05-10T07:08:02;19.52;;;13.57;;
10132;SDS011;5106;50.926;7.080;2023-05-10T07:10:28;20.25;;;13.40;;
10132;SDS011;5106;50.926;7.080;2023-05-10T07:12:54;19.33;;;13.43;;
10132;SDS011;5106;50.926;7.080;2023-05-10T07:15:20;24.45;;;15.50;;
10132;SDS011;5106;50.926;7.080;2023-05-10T07:17:45;21.88;;;14.75;;
10132;SDS011;5106;50.926;7.080;2023-05-10T07:20:11;19.83;;;14.40;;
10132;SDS011;5106;50.926;7.080;2023-05-10T07:22:37;24.52;;;15.48;;
10132;SDS011;5106;50.926;7.080;2023-05-10T07:25:03;22.85;;;16.08;;
10132;SDS011;5106;50.926;7.080;2023-05-10T07:27:28;21.67;;;15.73;;
10132;SDS011;5106;50.926;7.080;2023-05-10T07:29:54;21.27;;;15.18;;
10132;SDS011;5106;50.926;7.080;2023-05-10T07:32:21;22.63;;;14.90;;
10132;SDS011;5106;50.926;7.080;2023-05-10T07:34:47;19.30;;;15.05;;
10132;SDS011;5106;50.926;7.080;2023-05-10T07:37:12;20.52;;;14.60;;
10132;SDS011;5106;50.926;7.080;2023-05-10T07:39:38;22.80;;;15.60;;
10132;SDS011;5106;50.926;7.080;2023-05-10T07:42:03;24.17;;;14.57;;
10132;SDS011;5106;50.926;7.080;2023-05-10T07:44:29;20.33;;;14.45;;
10132;SDS011;5106;50.926;7.080;2023-05-10T07:46:54;22.75;;;14.65;;
10132;SDS011;5106;50.926;7.080;2023-05-10T07:49:20;22.35;;;16.05;;
10132;SDS011;5106;50.926;7.080;2023-05-10T07:51:46;22.27;;;15.02;;
10132;SDS011;5106;50.926;7.080;2023-05-10T07:54:12;20.27;;;14.93;;
10132;SDS011;5106;50.926;7.080;2023-05-10T07:56:39;20.77;;;14.40;;
10132;SDS011;5106;50.926;7.080;2023-05-10T07:59:09;23.35;;;14.52;;
10132;SDS011;5106;50.926;7.080;2023-05-10T08:01:39;22.65;;;15.63;;
10132;SDS011;5106;50.926;7.080;2023-05-10T08:04:06;20.23;;;14.75;;
10132;SDS011;5106;50.926;7.080;2023-05-10T08:06:32;21.88;;;15.02;;
10132;SDS011;5106;50.926;7.080;2023-05-10T08:08:57;21.50;;;14.80;;
10132;SDS011;5106;50.926;7.080;2023-05-10T08:11:23;18.77;;;13.45;;
10132;SDS011;5106;50.926;7.080;2023-05-10T08:13:49;21.27;;;13.52;;
10132;SDS011;5106;50.926;7.080;2023-05-10T08:16:16;18.45;;;14.20;;
10132;SDS011;5106;50.926;7.080;2023-05-10T08:18:42;20.83;;;13.88;;
10132;SDS011;5106;50.926;7.080;2023-05-10T08:21:15;21.02;;;14.52;;
10132;SDS011;5106;50.926;7.080;2023-05-10T08:23:41;25.50;;;15.90;;
10132;SDS011;5106;50.926;7.080;2023-05-10T08:26:08;21.65;;;15.77;;
10132;SDS011;5106;50.926;7.080;2023-05-10T08:28:34;24.15;;;16.42;;
10132;SDS011;5106;50.926;7.080;2023-05-10T08:30:59;21.05;;;14.95;;
10132;SDS011;5106;50.926;7.080;2023-05-10T08:33:25;21.38;;;14.43;;
10132;SDS011;5106;50.926;7.080;2023-05-10T08:35:51;19.65;;;14.77;;
10132;SDS011;5106;50.926;7.080;2023-05-10T08:38:17;22.73;;;14.27;;
10132;SDS011;5106;50.926;7.080;2023-05-10T08:40:44;20.13;;;14.30;;
10132;SDS011;5106;50.926;7.080;2023-05-10T08:43:14;19.10;;;12.45;;
10132;SDS011;5106;50.926;7.080;2023-05-10T08:45:42;17.80;;;12.88;;
10132;SDS011;5106;50.926;7.080;2023-05-10T08:48:10;18.20;;;13.18;;
10132;SDS011;5106;50.926;7.080;2023-05-10T08:50:39;15.05;;;11.10;;
10132;SDS011;5106;50.926;7.080;2023-05-10T08:53:11;17.67;;;10.95;;
10132;SDS011;5106;50.926;7.080;2023-05-10T08:55:39;14.02;;;9.90;;
10132;SDS011;5106;50.926;7.080;2023-05-10T08:58:06;14.85;;;10.45;;
10132;SDS011;5106;50.926;7.080;2023-05-10T09:00:33;16.42;;;11.02;;
10132;SDS011;5106;50.926;7.080;2023-05-10T09:03:00;21.45;;;9.95;;
10132;SDS011;5106;50.926;7.080;2023-05-10T09:05:26;8.25;;;5.90;;
10132;SDS011;5106;50.926;7.080;2023-05-10T09:07:52;8.45;;;6.80;;
10132;SDS011;5106;50.926;7.080;2023-05-10T09:10:19;10.63;;;7.15;;
10132;SDS011;5106;50.926;7.080;2023-05-10T09:12:45;9.65;;;6.85;;
10132;SDS011;5106;50.926;7.080;2023-05-10T09:15:14;7.85;;;6.45;;
10132;SDS011;5106;50.926;7.080;2023-05-10T09:17:44;9.73;;;6.25;;
10132;SDS011;5106;50.926;7.080;2023-05-10T09:20:10;12.60;;;6.20;;
10132;SDS011;5106;50.926;7.080;2023-05-10T09:22:36;10.40;;;6.65;;
10132;SDS011;5106;50.926;7.080;2023-05-10T09:25:03;9.45;;;6.43;;
10132;SDS011;5106;50.926;7.080;2023-05-10T09:27:36;8.55;;;6.53;;
10132;SDS011;5106;50.926;7.080;2023-05-10T09:30:03;7.13;;;6.38;;
10132;SDS011;5106;50.926;7.080;2023-05-10T09:32:43;8.73;;;6.53;;
10132;SDS011;5106;50.926;7.080;2023-05-10T09:35:21;9.32;;;7.45;;
10132;SDS011;5106;50.926;7.080;2023-05-10T09:37:49;9.85;;;7.05;;
10132;SDS011;5106;50.926;7.080;2023-05-10T09:40:20;13.25;;;8.70;;
10132;SDS011;5106;50.926;7.080;2023-05-10T09:42:56;11.73;;;7.72;;
10132;SDS011;5106;50.926;7.080;2023-05-10T09:45:27;12.10;;;8.40;;
10132;SDS011;5106;50.926;7.080;2023-05-10T09:47:55;12.70;;;8.55;;
10132;SDS011;5106;50.926;7.080;2023-05-10T09:50:21;12.63;;;8.40;;
10132;SDS011;5106;50.926;7.080;2023-05-10T09:55:46;10.80;;;9.05;;
10132;SDS011;5106;50.926;7.080;2023-05-10T09:58:12;14.90;;;10.25;;
10132;SDS011;5106;50.926;7.080;2023-05-10T10:00:42;17.35;;;13.00;;
10132;SDS011;5106;50.926;7.080;2023-05-10T10:03:13;19.45;;;12.80;;
10132;SDS011;5106;50.926;7.080;2023-05-10T10:05:42;19.10;;;12.40;;
10132;SDS011;5106;50.926;7.080;2023-05-10T10:08:09;16.40;;;11.43;;
10132;SDS011;5106;50.926;7.080;2023-05-10T10:10:36;14.73;;;11.20;;
10132;SDS011;5106;50.926;7.080;2023-05-10T10:13:01;16.95;;;11.88;;
10132;SDS011;5106;50.926;7.080;2023-05-10T10:15:27;18.52;;;11.93;;
10132;SDS011;5106;50.926;7.080;2023-05-10T10:17:53;16.98;;;11.63;;
10132;SDS011;5106;50.926;7.080;2023-05-10T10:20:20;17.15;;;11.02;;
10132;SDS011;5106;50.926;7.080;2023-05-10T10:22:47;15.82;;;11.13;;
10132;SDS011;5106;50.926;7.080;2023-05-10T10:25:14;19.40;;;11.88;;
10132;SDS011;5106;50.926;7.080;2023-05-10T10:30:27;16.77;;;10.98;;
10132;SDS011;5106;50.926;7.080;2023-05-10T10:36:03;19.40;;;12.55;;
10132;SDS011;5106;50.926;7.080;2023-05-10T10:47:02;17.17;;;11.00;;
10132;SDS011;5106;50.926;7.080;2023-05-10T10:49:31;13.82;;;9.18;;
10132;SDS011;5106;50.926;7.080;2023-05-10T10:57:24;13.98;;;9.65;;
10132;SDS011;5106;50.926;7.080;2023-05-10T10:59:51;12.50;;;8.35;;
10132;SDS011;5106;50.926;7.080;2023-05-10T11:08:06;12.52;;;7.78;;
10132;SDS011;5106;50.926;7.080;2023-05-10T11:10:32;11.40;;;8.52;;
10132;SDS011;5106;50.926;7.080;2023-05-10T11:12:59;9.35;;;7.05;;
10132;SDS011;5106;50.926;7.080;2023-05-10T11:15:30;13.00;;;8.05;;
10132;SDS011;5106;50.926;7.080;2023-05-10T11:18:25;11.55;;;7.57;;
10132;SDS011;5106;50.926;7.080;2023-05-10T11:20:59;10.02;;;7.07;;
10132;SDS011;5106;50.926;7.080;2023-05-10T11:26:08;9.13;;;6.97;;
10132;SDS011;5106;50.926;7.080;2023-05-10T11:28:41;11.70;;;7.90;;
10132;SDS011;5106;50.926;7.080;2023-05-10T11:31:13;9.88;;;7.30;;
10132;SDS011;5106;50.926;7.080;2023-05-10T11:33:43;9.57;;;7.50;;
10132;SDS011;5106;50.926;7.080;2023-05-10T11:36:16;10.10;;;6.72;;
10132;SDS011;5106;50.926;7.080;2023-05-10T11:38:43;7.88;;;6.05;;
10132;SDS011;5106;50.926;7.080;2023-05-10T11:41:09;7.40;;;5.65;;
10132;SDS011;5106;50.926;7.080;2023-05-10T11:43:36;7.47;;;5.20;;
10132;SDS011;5106;50.926;7.080;2023-05-10T11:46:04;7.80;;;5.28;;
10132;SDS011;5106;50.926;7.080;2023-05-10T11:48:31;5.65;;;4.30;;
10132;SDS011;5106;50.926;7.080;2023-05-10T11:50:57;5.43;;;4.07;;
10132;SDS011;5106;50.926;7.080;2023-05-10T11:53:25;4.00;;;3.60;;
10132;SDS011;5106;50.926;7.080;2023-05-10T11:55:51;5.80;;;3.67;;
10132;SDS011;5106;50.926;7.080;2023-05-10T11:58:18;4.90;;;3.00;;
10132;SDS011;5106;50.926;7.080;2023-05-10T12:00:43;4.85;;;3.15;;
10132;SDS011;5106;50.926;7.080;2023-05-10T12:03:10;3.80;;;3.40;;
10132;SDS011;5106;50.926;7.080;2023-05-10T12:05:36;4.82;;;3.67;;
10132;SDS011;5106;50.926;7.080;2023-05-10T12:08:11;4.80;;;4.00;;
10132;SDS011;5106;50.926;7.080;2023-05-10T12:10:40;5.50;;;3.70;;
10132;SDS011;5106;50.926;7.080;2023-05-10T12:13:10;3.55;;;3.05;;
10132;SDS011;5106;50.926;7.080;2023-05-10T12:15:37;3.55;;;3.08;;
10132;SDS011;5106;50.926;7.080;2023-05-10T12:18:03;3.67;;;3.08;;
10132;SDS011;5106;50.926;7.080;2023-05-10T12:20:30;3.50;;;2.97;;
10132;SDS011;5106;50.926;7.080;2023-05-10T12:22:56;2.67;;;2.47;;
10132;SDS011;5106;50.926;7.080;2023-05-10T12:25:24;3.80;;;2.55;;
10132;SDS011;5106;50.926;7.080;2023-05-10T12:27:57;2.88;;;2.40;;
10132;SDS011;5106;50.926;7.080;2023-05-10T12:30:26;3.15;;;2.58;;
10132;SDS011;5106;50.926;7.080;2023-05-10T12:32:58;2.80;;;2.60;;
10132;SDS011;5106;50.926;7.080;2023-05-10T12:35:25;2.40;;;2.20;;
10132;SDS011;5106;50.926;7.080;2023-05-10T12:37:51;3.55;;;2.40;;
10132;SDS011;5106;50.926;7.080;2023-05-10T12:40:16;3.28;;;2.45;;
10132;SDS011;5106;50.926;7.080;2023-05-10T12:42:42;2.50;;;2.28;;
10132;SDS011;5106;50.926;7.080;2023-05-10T12:45:11;2.70;;;2.30;;
10132;SDS011;5106;50.926;7.080;2023-05-10T12:47:37;2.38;;;2.17;;
10132;SDS011;5106;50.926;7.080;2023-05-10T12:50:03;3.63;;;2.50;;
10132;SDS011;5106;50.926;7.080;2023-05-10T12:52:29;2.67;;;2.03;;
10132;SDS011;5106;50.926;7.080;2023-05-10T12:54:57;2.30;;;1.95;;
10132;SDS011;5106;50.926;7.080;2023-05-10T12:57:23;2.30;;;2.08;;
10132;SDS011;5106;50.926;7.080;2023-05-10T12:59:48;2.22;;;2.00;;
10132;SDS011;5106;50.926;7.080;2023-05-10T13:02:14;4.72;;;2.42;;
10132;SDS011;5106;50.926;7.080;2023-05-10T13:04:40;2.17;;;1.90;;
10132;SDS011;5106;50.926;7.080;2023-05-10T13:07:06;2.72;;;2.08;;
10132;SDS011;5106;50.926;7.080;2023-05-10T13:09:32;2.28;;;2.08;;
10132;SDS011;5106;50.926;7.080;2023-05-10T13:11:58;1.73;;;1.63;;
10132;SDS011;5106;50.926;7.080;2023-05-10T13:14:23;1.75;;;1.63;;
10132;SDS011;5106;50.926;7.080;2023-05-10T13:16:49;2.00;;;1.80;;
10132;SDS011;5106;50.926;7.080;2023-05-10T13:19:15;2.05;;;1.77;;
10132;SDS011;5106;50.926;7.080;2023-05-10T13:21:42;2.95;;;2.15;;
10132;SDS011;5106;50.926;7.080;2023-05-10T13:24:09;4.22;;;2.38;;
10132;SDS011;5106;50.926;7.080;2023-05-10T13:26:35;1.90;;;1.80;;
10132;SDS011;5106;50.926;7.080;2023-05-10T13:29:01;2.50;;;2.30;;
10132;SDS011;5106;50.926;7.080;2023-05-10T13:31:27;3.65;;;2.25;;
10132;SDS011;5106;50.926;7.080;2023-05-10T13:33:52;2.50;;;2.28;;
10132;SDS011;5106;50.926;7.080;2023-05-10T13:36:18;2.42;;;1.95;;
10132;SDS011;5106;50.926;7.080;2023-05-10T13:38:43;2.42;;;2.00;;
10132;SDS011;5106;50.926;7.080;2023-05-10T13:41:09;2.30;;;1.83;;
10132;SDS011;5106;50.926;7.080;2023-05-10T13:43:36;1.63;;;1.52;;
10132;SDS011;5106;50.926;7.080;2023-05-10T13:46:01;1.77;;;1.67;;
10132;SDS011;5106;50.926;7.080;2023-05-10T13:48:27;1.92;;;1.48;;
10132;SDS011;5106;50.926;7.080;2023-05-10T13:50:53;1.70;;;1.52;;
10132;SDS011;5106;50.926;7.080;2023-05-10T13:53:19;1.48;;;1.38;;
10132;SDS011;5106;50.926;7.080;2023-05-10T13:55:44;1.40;;;1.30;;
10132;SDS011;5106;50.926;7.080;2023-05-10T13:58:10;1.73;;;1.40;;
10132;SDS011;5106;50.926;7.080;2023-05-10T14:00:35;1.52;;;1.42;;
10132;SDS011;5106;50.926;7.080;2023-05-10T14:03:01;2.15;;;1.58;;
10132;SDS011;5106;50.926;7.080;2023-05-10T14:05:27;2.15;;;1.70;;
10132;SDS011;5106;50.926;7.080;2023-05-10T14:07:52;2.50;;;1.70;;
10132;SDS011;5106;50.926;7.080;2023-05-10T14:10:18;1.27;;;1.17;;
10132;SDS011;5106;50.926;7.080;2023-05-10T14:12:44;1.17;;;1.08;;
10132;SDS011;5106;50.926;7.080;2023-05-10T14:15:10;1.10;;;1.00;;
10132;SDS011;5106;50.926;7.080;2023-05-10T14:17:36;1.10;;;1.00;;
10132;SDS011;5106;50.926;7.080;2023-05-10T14:20:02;1.20;;;1.05;;
10132;SDS011;5106;50.926;7.080;2023-05-10T14:22:28;1.85;;;1.30;;
10132;SDS011;5106;50.926;7.080;2023-05-10T14:24:54;1.40;;;1.10;;
10132;SDS011;5106;50.926;7.080;2023-05-10T14:27:20;2.33;;;1.27;;
10132;SDS011;5106;50.926;7.080;2023-05-10T14:29:46;1.30;;;1.20;;
10132;SDS011;5106;50.926;7.080;2023-05-10T14:32:12;1.83;;;1.30;;
10132;SDS011;5106;50.926;7.080;2023-05-10T14:34:38;1.60;;;1.50;;
10132;SDS011;5106;50.926;7.080;2023-05-10T14:37:03;1.40;;;1.30;;
10132;SDS011;5106;50.926;7.080;2023-05-10T14:39:29;1.35;;;1.25;;
10132;SDS011;5106;50.926;7.080;2023-05-10T14:41:55;1.95;;;1.38;;
10132;SDS011;5106;50.926;7.080;2023-05-10T14:44:21;1.67;;;1.30;;
10132;SDS011;5106;50.926;7.080;2023-05-10T14:46:47;1.35;;;1.10;;
10132;SDS011;5106;50.926;7.080;2023-05-10T14:49:14;1.85;;;1.30;;
10132;SDS011;5106;50.926;7.080;2023-05-10T14:51:40;1.50;;;1.17;;
10132;SDS011;5106;50.926;7.080;2023-05-10T14:54:05;1.65;;;1.23;;
10132;SDS011;5106;50.926;7.080;2023-05-10T14:56:31;2.65;;;1.30;;
10132;SDS011;5106;50.926;7.080;2023-05-10T14:58:57;1.48;;;1.38;;
10132;SDS011;5106;50.926;7.080;2023-05-10T15:01:22;2.22;;;1.60;;
10132;SDS011;5106;50.926;7.080;2023-05-10T15:03:48;1.55;;;1.30;;
10132;SDS011;5106;50.926;7.080;2023-05-10T15:06:14;7.00;;;1.80;;
10132;SDS011;5106;50.926;7.080;2023-05-10T15:08:40;1.77;;;1.05;;
10132;SDS011;5106;50.926;7.080;2023-05-10T15:11:06;1.30;;;1.20;;
10132;SDS011;5106;50.926;7.080;2023-05-10T15:13:32;1.50;;;1.15;;
10132;SDS011;5106;50.926;7.080;2023-05-10T15:15:57;1.30;;;1.13;;
10132;SDS011;5106;50.926;7.080;2023-05-10T15:18:23;4.53;;;1.50;;
10132;SDS011;5106;50.926;7.080;2023-05-10T15:20:48;1.20;;;1.10;;
10132;SDS011;5106;50.926;7.080;2023-05-10T15:23:14;3.33;;;1.30;;
10132;SDS011;5106;50.926;7.080;2023-05-10T15:25:40;1.52;;;0.98;;
10132;SDS011;5106;50.926;7.080;2023-05-10T15:28:05;1.30;;;1.20;;
10132;SDS011;5106;50.926;7.080;2023-05-10T15:30:31;1.48;;;1.38;;
10132;SDS011;5106;50.926;7.080;2023-05-10T15:32:57;1.30;;;1.20;;
10132;SDS011;5106;50.926;7.080;2023-05-10T15:35:22;1.70;;;1.27;;